createdAt,value
2022-07-29T00:00:56.853Z,50.29
2022-07-29T00:03:23.310Z,50.06
2022-07-29T00:05:49.801Z,50.21
2022-07-29T00:08:16.587Z,50.10
2022-07-29T00:10:43.315Z,50.24
2022-07-29T00:13:09.707Z,50.07
2022-07-29T00:15:36.207Z,49.95
2022-07-29T00:18:02.630Z,49.85
2022-07-29T00:20:29.173Z,49.84
2022-07-29T00:22:55.586Z,50.18
2022-07-29T00:25:22.073Z,50.00
2022-07-29T00:27:48.584Z,50.09
2022-07-29T00:30:15.354Z,49.99
2022-07-29T00:32:41.866Z,49.88
2022-07-29T00:35:27.366Z,50.08
2022-07-29T00:37:53.758Z,50.00
2022-07-29T00:40:23.517Z,49.73
2022-07-29T00:42:51.742Z,49.67
2022-07-29T00:45:18.710Z,49.79
2022-07-29T00:47:46.371Z,49.93
2022-07-29T00:50:13.754Z,49.61
2022-07-29T00:52:41.062Z,49.71
2022-07-29T00:55:08.886Z,50.10
2022-07-29T00:57:38.745Z,49.85
2022-07-29T01:00:06.060Z,49.97
2022-07-29T01:02:32.477Z,49.90
2022-07-29T01:04:59.041Z,50.00
2022-07-29T01:07:26.600Z,49.89
2022-07-29T01:09:54.504Z,49.83
2022-07-29T01:12:24.027Z,49.60
2022-07-29T01:14:51.534Z,49.79
2022-07-29T01:17:34.795Z,49.89
2022-07-29T01:20:11.221Z,49.89
2022-07-29T01:22:43.568Z,50.03
2022-07-29T01:25:25.266Z,49.88
2022-07-29T01:28:01.601Z,50.14
2022-07-29T01:30:30.727Z,49.69
2022-07-29T01:33:02.582Z,49.65
2022-07-29T01:35:35.186Z,49.87
2022-07-29T01:38:01.530Z,49.83
2022-07-29T01:40:27.878Z,49.67
2022-07-29T01:42:56.864Z,49.76
2022-07-29T01:45:34.274Z,49.91
2022-07-29T01:48:19.060Z,49.90
2022-07-29T01:50:49.630Z,49.73
2022-07-29T01:53:22.577Z,49.85
2022-07-29T01:55:49.481Z,49.70
2022-07-29T02:00:44.014Z,49.71
2022-07-29T02:03:12.130Z,49.70
2022-07-29T02:08:05.324Z,49.73
2022-07-29T02:10:33.756Z,49.57
2022-07-29T02:13:00.635Z,49.80
2022-07-29T02:15:29.705Z,49.49
2022-07-29T02:17:57.736Z,49.87
2022-07-29T02:20:26.225Z,49.58
2022-07-29T02:22:53.147Z,49.51
2022-07-29T02:25:21.974Z,49.62
2022-07-29T02:27:49.792Z,49.62
2022-07-29T02:30:16.269Z,49.65
2022-07-29T02:32:42.890Z,49.54
2022-07-29T02:35:10.608Z,49.53
2022-07-29T02:37:37.493Z,49.58
2022-07-29T02:40:04.642Z,49.51
2022-07-29T02:42:32.446Z,49.66
2022-07-29T02:44:59.056Z,49.45
2022-07-29T02:47:31.629Z,49.72
2022-07-29T02:50:21.121Z,49.70
2022-07-29T02:52:50.297Z,49.59
2022-07-29T02:55:16.665Z,49.63
2022-07-29T02:57:53.866Z,49.24
2022-07-29T03:00:22.071Z,49.46
2022-07-29T03:02:51.417Z,49.19
2022-07-29T03:05:19.351Z,49.46
2022-07-29T03:07:52.697Z,49.12
2022-07-29T03:10:19.494Z,49.53
2022-07-29T03:12:46.560Z,49.44
2022-07-29T03:15:14.370Z,49.52
2022-07-29T03:17:40.923Z,49.50
2022-07-29T03:20:08.593Z,49.24
2022-07-29T03:22:39.881Z,49.59
2022-07-29T03:25:09.712Z,49.43
2022-07-29T03:27:36.088Z,49.14
2022-07-29T03:30:02.465Z,49.19
2022-07-29T03:32:28.862Z,49.27
2022-07-29T03:34:56.438Z,49.17
2022-07-29T03:37:22.863Z,49.12
2022-07-29T03:39:50.748Z,49.25
2022-07-29T03:42:17.644Z,49.16
2022-07-29T03:44:45.831Z,49.16
2022-07-29T03:47:14.450Z,49.29
2022-07-29T03:49:41.850Z,49.17
2022-07-29T03:52:08.614Z,49.23
2022-07-29T03:54:35.130Z,49.46
2022-07-29T03:57:02.707Z,49.40
2022-07-29T03:59:29.186Z,49.42
2022-07-29T04:01:57.154Z,49.27
2022-07-29T04:04:23.710Z,49.33
2022-07-29T04:06:50.289Z,48.92
2022-07-29T04:09:16.683Z,48.94
2022-07-29T04:12:03.565Z,49.13
2022-07-29T04:14:29.976Z,49.01
2022-07-29T04:16:56.377Z,49.39
2022-07-29T04:19:23.493Z,49.26
2022-07-29T04:21:49.955Z,49.24
2022-07-29T04:24:17.272Z,49.38
2022-07-29T04:26:44.168Z,49.12
2022-07-29T04:29:10.553Z,49.22
2022-07-29T04:31:37.005Z,49.31
2022-07-29T04:34:03.442Z,49.18
2022-07-29T04:36:30.232Z,49.46
2022-07-29T04:38:56.816Z,49.67
2022-07-29T04:41:23.350Z,49.24
2022-07-29T04:44:01.799Z,49.47
2022-07-29T04:46:28.451Z,49.25
2022-07-29T04:48:55.233Z,49.12
2022-07-29T04:51:21.695Z,49.56
2022-07-29T04:53:48.116Z,49.59
2022-07-29T04:56:14.517Z,49.51
2022-07-29T04:58:40.918Z,49.39
2022-07-29T05:01:07.361Z,49.68
2022-07-29T05:03:33.870Z,49.34
2022-07-29T05:06:00.260Z,49.34
2022-07-29T05:08:26.667Z,49.36
2022-07-29T05:10:53.057Z,49.80
2022-07-29T05:13:19.563Z,49.72
2022-07-29T05:15:46.009Z,49.72
2022-07-29T05:18:12.512Z,49.30
2022-07-29T05:20:38.898Z,49.71
2022-07-29T05:23:05.342Z,49.35
2022-07-29T05:25:43.192Z,49.63
2022-07-29T05:28:11.016Z,49.53
2022-07-29T05:30:37.544Z,49.78
2022-07-29T05:33:04.011Z,49.82
2022-07-29T05:35:30.412Z,49.75
2022-07-29T05:37:56.800Z,49.85
2022-07-29T05:40:23.297Z,49.88
2022-07-29T05:42:49.705Z,49.92
2022-07-29T05:45:16.109Z,50.41
2022-07-29T05:47:42.503Z,49.93
2022-07-29T05:50:09.646Z,50.09
2022-07-29T05:52:36.120Z,50.50
2022-07-29T05:55:05.295Z,50.16
2022-07-29T05:57:32.018Z,50.45
2022-07-29T05:59:58.739Z,50.33
2022-07-29T06:02:25.248Z,50.37
2022-07-29T06:04:51.774Z,50.21
2022-07-29T06:07:18.350Z,50.66
2022-07-29T06:09:44.855Z,50.66
2022-07-29T06:12:11.291Z,50.59
2022-07-29T06:14:38.929Z,50.96
2022-07-29T06:17:06.330Z,50.48
2022-07-29T06:19:35.277Z,50.68
2022-07-29T06:22:01.810Z,51.04
2022-07-29T06:24:28.266Z,50.69
2022-07-29T06:26:54.711Z,50.85
2022-07-29T06:29:21.096Z,50.96
2022-07-29T06:31:47.501Z,51.08
2022-07-29T06:34:14.319Z,51.43
2022-07-29T06:36:41.615Z,51.42
2022-07-29T06:39:08.789Z,51.20
2022-07-29T06:41:35.421Z,51.72
2022-07-29T06:44:02.361Z,51.55
2022-07-29T06:46:28.861Z,51.42
2022-07-29T06:48:55.585Z,51.73
2022-07-29T06:51:23.077Z,51.65
2022-07-29T06:53:59.544Z,52.20
2022-07-29T06:56:29.034Z,52.06
2022-07-29T06:58:55.437Z,52.21
2022-07-29T07:01:21.958Z,52.16
2022-07-29T07:03:48.500Z,52.21
2022-07-29T07:06:15.279Z,52.40
2022-07-29T07:08:41.761Z,52.16
2022-07-29T07:11:08.250Z,52.31
2022-07-29T07:13:36.822Z,52.41
2022-07-29T07:16:03.978Z,52.92
2022-07-29T07:18:30.526Z,52.66
2022-07-29T07:20:57.720Z,52.82
2022-07-29T07:23:24.139Z,53.06
2022-07-29T07:25:50.549Z,52.85
2022-07-29T07:28:16.955Z,53.01
2022-07-29T07:30:43.447Z,53.40
2022-07-29T07:33:10.230Z,53.44
2022-07-29T07:35:36.642Z,53.54
2022-07-29T07:38:03.094Z,53.58
2022-07-29T07:40:29.507Z,53.71
2022-07-29T07:42:55.886Z,53.96
2022-07-29T07:45:22.769Z,53.74
2022-07-29T07:50:18.990Z,53.90
2022-07-29T07:52:50.006Z,54.36
2022-07-29T07:55:16.627Z,54.18
2022-07-29T07:57:43.044Z,54.34
2022-07-29T08:00:09.713Z,54.30
2022-07-29T08:02:36.140Z,54.42
2022-07-29T08:05:02.738Z,54.76
2022-07-29T08:07:30.222Z,54.30
2022-07-29T08:09:56.618Z,54.79
2022-07-29T08:12:23.039Z,54.63
2022-07-29T08:14:49.469Z,54.51
2022-07-29T08:17:15.906Z,55.15
2022-07-29T08:19:42.316Z,54.96
2022-07-29T08:22:08.708Z,54.86
2022-07-29T08:24:44.172Z,54.93
2022-07-29T08:27:40.691Z,55.05
2022-07-29T08:30:01.158Z,55.37
2022-07-29T08:32:51.908Z,55.34
2022-07-29T08:35:15.789Z,55.19
2022-07-29T08:37:42.922Z,55.45
2022-07-29T08:40:09.553Z,55.29
2022-07-29T08:42:36.382Z,55.46
2022-07-29T08:45:03.336Z,55.53
2022-07-29T08:47:30.337Z,55.40
2022-07-29T08:49:56.779Z,55.73
2022-07-29T08:52:26.069Z,55.60
2022-07-29T08:54:53.708Z,55.68
2022-07-29T08:57:22.218Z,55.68
2022-07-29T08:59:51.203Z,56.09
2022-07-29T09:02:21.173Z,56.21
2022-07-29T09:04:47.902Z,56.04
2022-07-29T09:07:18.603Z,55.72
2022-07-29T09:09:45.178Z,56.16
2022-07-29T09:12:29.359Z,56.18
2022-07-29T09:14:57.100Z,56.07
2022-07-29T09:17:42.886Z,55.96
2022-07-29T09:20:10.280Z,56.31
2022-07-29T09:22:41.740Z,56.20
2022-07-29T09:25:08.608Z,56.14
2022-07-29T09:27:35.329Z,56.37
2022-07-29T09:30:05.141Z,56.43
2022-07-29T09:32:31.983Z,56.68
2022-07-29T09:35:17.415Z,56.82
2022-07-29T09:37:44.665Z,56.39
2022-07-29T09:40:18.366Z,56.72
2022-07-29T09:42:45.483Z,56.88
2022-07-29T09:45:12.631Z,56.77
2022-07-29T09:47:43.118Z,56.66
2022-07-29T09:50:09.549Z,56.80
2022-07-29T09:52:45.208Z,57.05
2022-07-29T09:55:17.823Z,57.22
2022-07-29T09:57:45.431Z,56.85
2022-07-29T10:00:13.992Z,56.87
2022-07-29T10:02:41.203Z,56.88
2022-07-29T10:05:18.315Z,56.81
2022-07-29T10:07:44.684Z,57.18
2022-07-29T10:10:11.140Z,57.14
2022-07-29T10:12:49.401Z,57.26
2022-07-29T10:15:16.370Z,57.01
2022-07-29T10:17:43.192Z,57.35
2022-07-29T10:20:12.452Z,57.04
2022-07-29T10:22:53.131Z,57.42
2022-07-29T10:25:20.802Z,57.50
2022-07-29T10:27:48.499Z,57.39
2022-07-29T10:30:16.090Z,57.41
2022-07-29T10:32:54.222Z,57.20
2022-07-29T10:35:36.254Z,57.40
2022-07-29T10:38:16.663Z,57.31
2022-07-29T10:41:02.308Z,57.55
2022-07-29T10:43:38.823Z,57.80
2022-07-29T10:46:09.439Z,57.84
2022-07-29T10:48:45.311Z,57.58
2022-07-29T10:51:13.433Z,57.60
2022-07-29T10:53:51.482Z,57.89
2022-07-29T10:56:25.499Z,57.62
2022-07-29T10:59:10.890Z,57.88
2022-07-29T11:01:39.386Z,58.01
2022-07-29T11:04:13.079Z,57.80
2022-07-29T11:06:59.554Z,57.90
2022-07-29T11:09:37.728Z,57.96
2022-07-29T11:12:05.422Z,58.01
2022-07-29T11:14:50.359Z,57.83
2022-07-29T11:17:16.742Z,57.81
2022-07-29T11:19:49.258Z,58.18
2022-07-29T11:22:34.902Z,58.17
2022-07-29T11:25:14.856Z,58.09
2022-07-29T11:27:43.880Z,58.08
2022-07-29T11:30:13.153Z,58.24
2022-07-29T11:32:42.259Z,58.16
2022-07-29T11:38:27.731Z,58.38
2022-07-29T11:41:13.465Z,58.49
2022-07-29T11:43:50.613Z,58.54
2022-07-29T11:46:18.281Z,58.62
2022-07-29T11:48:52.071Z,58.77
2022-07-29T11:51:18.786Z,58.68
2022-07-29T11:54:04.107Z,58.43
2022-07-29T11:56:35.287Z,58.74
2022-07-29T11:59:08.518Z,58.90
2022-07-29T12:01:35.233Z,58.39
2022-07-29T12:06:52.480Z,59.04
2022-07-29T12:07:02.572Z,58.92
2022-07-29T12:09:19.547Z,58.91
2022-07-29T12:11:47.672Z,58.70
2022-07-29T12:14:30.775Z,59.18
2022-07-29T12:16:58.063Z,58.67
2022-07-29T12:19:25.230Z,58.78
2022-07-29T12:21:56.456Z,58.66
2022-07-29T12:24:26.471Z,59.16
2022-07-29T12:26:54.853Z,58.93
2022-07-29T12:29:33.628Z,59.30
2022-07-29T12:32:02.113Z,59.26
2022-07-29T12:34:29.497Z,58.94
2022-07-29T12:36:56.567Z,59.26
2022-07-29T12:39:23.054Z,59.42
2022-07-29T12:41:49.473Z,59.01
2022-07-29T12:44:15.889Z,59.38
2022-07-29T12:46:42.415Z,59.37
2022-07-29T12:49:09.111Z,59.48
2022-07-29T12:51:37.655Z,59.42
2022-07-29T12:54:11.473Z,59.51
2022-07-29T12:56:43.236Z,59.75
2022-07-29T12:59:16.895Z,59.51
2022-07-29T13:01:44.011Z,59.59
2022-07-29T13:04:10.522Z,59.20
2022-07-29T13:06:39.332Z,59.73
2022-07-29T13:09:14.499Z,59.56
2022-07-29T13:11:48.628Z,59.71
2022-07-29T13:14:31.693Z,59.85
2022-07-29T13:17:10.012Z,59.33
2022-07-29T13:19:43.600Z,59.78
2022-07-29T13:22:11.176Z,59.42
2022-07-29T13:24:47.538Z,59.42
2022-07-29T13:27:20.954Z,60.04
2022-07-29T13:29:47.871Z,60.02
2022-07-29T13:32:14.308Z,59.90
2022-07-29T13:34:40.903Z,59.72
2022-07-29T13:39:33.667Z,59.94
2022-07-29T13:42:00.616Z,59.64
2022-07-29T13:44:27.646Z,60.00
2022-07-29T13:46:54.077Z,59.77
2022-07-29T13:49:20.627Z,60.03
2022-07-29T13:51:47.036Z,60.10
2022-07-29T13:54:13.416Z,59.80
2022-07-29T13:56:39.798Z,60.07
2022-07-29T13:59:06.193Z,59.71
2022-07-29T14:01:32.832Z,60.08
2022-07-29T14:03:59.341Z,60.16
2022-07-29T14:06:25.839Z,60.30
2022-07-29T14:08:52.248Z,59.76
2022-07-29T14:11:18.653Z,59.72
2022-07-29T14:13:45.136Z,59.81
2022-07-29T14:16:11.744Z,59.81
2022-07-29T14:18:38.188Z,60.05
2022-07-29T14:21:04.643Z,60.22
2022-07-29T14:23:31.238Z,60.04
2022-07-29T14:25:57.777Z,59.62
2022-07-29T14:28:24.259Z,60.05
2022-07-29T14:30:50.682Z,60.07
2022-07-29T14:33:17.152Z,60.09
2022-07-29T14:35:43.620Z,60.09
2022-07-29T14:38:10.175Z,60.11
2022-07-29T14:40:37.308Z,60.04
2022-07-29T14:43:03.821Z,60.09
2022-07-29T14:45:30.517Z,60.20
2022-07-29T14:47:57.441Z,59.99
2022-07-29T14:50:31.653Z,60.12
2022-07-29T14:52:58.824Z,59.86
2022-07-29T14:55:25.189Z,60.16
2022-07-29T14:57:51.608Z,60.00
2022-07-29T15:00:18.398Z,60.11
2022-07-29T15:03:01.443Z,60.15
2022-07-29T15:05:28.148Z,59.80
2022-07-29T15:07:54.971Z,59.77
2022-07-29T15:10:21.571Z,60.15
2022-07-29T15:12:51.168Z,59.73
2022-07-29T15:15:17.561Z,60.10
2022-07-29T15:17:44.047Z,60.06
2022-07-29T15:20:11.147Z,59.70
2022-07-29T15:22:39.041Z,59.79
2022-07-29T15:25:05.999Z,60.12
2022-07-29T15:27:32.418Z,60.13
2022-07-29T15:29:58.821Z,60.18
2022-07-29T15:32:25.232Z,59.83
2022-07-29T15:34:51.702Z,60.19
2022-07-29T15:37:18.064Z,60.21
2022-07-29T15:39:44.471Z,60.33
2022-07-29T15:42:10.895Z,59.99
2022-07-29T15:44:37.278Z,60.23
2022-07-29T15:47:03.831Z,60.22
2022-07-29T15:49:48.434Z,59.95
2022-07-29T15:52:17.212Z,59.90
2022-07-29T15:54:43.655Z,60.21
2022-07-29T15:57:10.083Z,60.26
2022-07-29T15:59:36.532Z,60.13
2022-07-29T16:02:03.059Z,60.30
2022-07-29T16:04:29.582Z,60.07
2022-07-29T16:06:56.162Z,60.37
2022-07-29T16:09:22.864Z,59.86
2022-07-29T16:11:50.979Z,60.32
2022-07-29T16:14:18.247Z,60.26
2022-07-29T16:16:45.121Z,60.36
2022-07-29T16:19:12.083Z,60.25
2022-07-29T16:21:38.724Z,60.24
2022-07-29T16:24:05.621Z,60.26
2022-07-29T16:26:32.139Z,60.45
2022-07-29T16:28:59.692Z,60.38
2022-07-29T16:31:26.721Z,60.37
2022-07-29T16:33:54.690Z,60.27
2022-07-29T16:36:22.562Z,60.13
2022-07-29T16:38:49.016Z,60.28
2022-07-29T16:41:15.504Z,60.18
2022-07-29T16:43:41.964Z,60.31
2022-07-29T16:46:09.318Z,59.99
2022-07-29T16:48:39.650Z,60.20
2022-07-29T16:51:07.466Z,60.40
2022-07-29T16:53:33.991Z,60.03
2022-07-29T16:56:01.007Z,60.29
2022-07-29T16:58:27.610Z,60.37
2022-07-29T17:00:54.114Z,60.03
2022-07-29T17:03:20.633Z,60.44
2022-07-29T17:05:50.652Z,60.07
2022-07-29T17:08:20.487Z,60.43
2022-07-29T17:10:47.322Z,60.02
2022-07-29T17:13:13.735Z,60.48
2022-07-29T17:15:42.499Z,60.20
2022-07-29T17:18:12.331Z,60.44
2022-07-29T17:20:39.540Z,60.47
2022-07-29T17:23:05.949Z,60.35
2022-07-29T17:25:32.397Z,60.42
2022-07-29T17:28:01.119Z,60.16
2022-07-29T17:30:27.897Z,60.45
2022-07-29T17:32:54.882Z,60.33
2022-07-29T17:35:39.904Z,60.45
2022-07-29T17:38:06.342Z,60.50
2022-07-29T17:40:32.756Z,60.40
2022-07-29T17:42:59.149Z,60.52
2022-07-29T17:45:25.628Z,60.49
2022-07-29T17:47:52.038Z,60.39
2022-07-29T17:50:18.484Z,60.50
2022-07-29T17:52:44.957Z,60.36
2022-07-29T17:55:13.297Z,60.44
2022-07-29T17:57:39.722Z,60.09
2022-07-29T18:00:08.405Z,60.11
2022-07-29T18:02:37.504Z,60.40
2022-07-29T18:05:04.737Z,60.41
2022-07-29T18:07:31.259Z,60.34
2022-07-29T18:10:00.624Z,60.36
2022-07-29T18:12:27.435Z,60.40
2022-07-29T18:14:53.825Z,60.24
2022-07-29T18:17:20.218Z,60.49
2022-07-29T18:19:46.607Z,60.38
2022-07-29T18:22:14.236Z,60.25
2022-07-29T18:24:41.263Z,60.42
2022-07-29T18:27:08.061Z,60.36
2022-07-29T18:29:34.700Z,60.29
2022-07-29T18:32:01.636Z,59.96
2022-07-29T18:34:28.922Z,60.11
2022-07-29T18:36:55.677Z,60.48
2022-07-29T18:39:22.309Z,59.89
2022-07-29T18:41:50.887Z,60.01
2022-07-29T18:44:18.306Z,60.24
2022-07-29T18:46:47.227Z,60.25
2022-07-29T18:49:14.505Z,60.00
2022-07-29T18:51:40.967Z,60.28
2022-07-29T18:54:09.169Z,60.03
2022-07-29T18:59:03.007Z,60.33
2022-07-29T19:01:31.596Z,60.49
2022-07-29T19:03:58.524Z,59.99
2022-07-29T19:06:25.902Z,60.07
2022-07-29T19:08:52.778Z,60.06
2022-07-29T19:11:19.225Z,59.97
2022-07-29T19:13:45.607Z,60.38
2022-07-29T19:16:14.036Z,60.27
2022-07-29T19:18:40.677Z,60.11
2022-07-29T19:21:07.082Z,60.46
2022-07-29T19:24:05.203Z,60.45
2022-07-29T19:26:22.733Z,60.53
2022-07-29T19:28:49.321Z,60.46
2022-07-29T19:31:15.890Z,60.37
2022-07-29T19:33:42.648Z,60.67
2022-07-29T19:36:09.070Z,60.56
2022-07-29T19:38:35.528Z,60.33
2022-07-29T19:41:01.916Z,60.38
2022-07-29T19:43:51.618Z,60.53
2022-07-29T19:46:14.749Z,60.65
2022-07-29T19:48:41.254Z,60.38
2022-07-29T19:51:07.688Z,60.65
2022-07-29T19:53:34.146Z,60.35
2022-07-29T19:56:00.546Z,60.70
2022-07-29T19:58:27.178Z,60.70
2022-07-29T20:00:54.651Z,60.51
2022-07-29T20:03:21.036Z,60.66
2022-07-29T20:05:50.998Z,60.80
2022-07-29T20:08:17.662Z,60.88
2022-07-29T20:10:44.302Z,61.01
2022-07-29T20:13:10.849Z,60.56
2022-07-29T20:15:37.369Z,60.65
2022-07-29T20:18:03.996Z,60.86
2022-07-29T20:20:30.715Z,60.95
2022-07-29T20:22:57.161Z,60.79
2022-07-29T20:25:24.019Z,60.95
2022-07-29T20:27:52.428Z,61.15
2022-07-29T20:30:19.810Z,61.25
2022-07-29T20:32:47.649Z,61.25
2022-07-29T20:35:14.091Z,61.13
2022-07-29T20:37:52.319Z,61.24
2022-07-29T20:40:22.966Z,60.90
2022-07-29T20:42:49.405Z,60.83
2022-07-29T20:45:15.861Z,60.88
2022-07-29T20:47:42.278Z,61.19
2022-07-29T20:50:10.094Z,60.97
2022-07-29T20:52:36.598Z,61.25
2022-07-29T20:55:03.087Z,61.24
2022-07-29T20:57:39.485Z,61.08
2022-07-29T21:00:07.142Z,60.93
2022-07-29T21:02:33.691Z,61.23
2022-07-29T21:05:00.248Z,61.25
2022-07-29T21:07:26.629Z,61.19
2022-07-29T21:09:53.051Z,61.44
2022-07-29T21:12:19.469Z,61.15
2022-07-29T21:14:47.854Z,61.06
2022-07-29T21:17:15.523Z,61.29
2022-07-29T21:19:42.459Z,61.35
2022-07-29T21:22:09.199Z,61.51
2022-07-29T21:24:35.751Z,61.52
2022-07-29T21:27:21.925Z,61.46
2022-07-29T21:29:48.643Z,61.54
2022-07-29T21:32:27.575Z,61.46
2022-07-29T21:34:56.823Z,61.31
2022-07-29T21:37:23.360Z,61.45
2022-07-29T21:39:49.795Z,61.41
2022-07-29T21:42:16.180Z,61.77
2022-07-29T21:44:42.712Z,61.75
2022-07-29T21:47:09.675Z,61.64
2022-07-29T21:49:36.121Z,61.45
2022-07-29T21:52:04.536Z,61.66
2022-07-29T21:54:31.461Z,61.62
2022-07-29T21:56:58.091Z,61.64
2022-07-29T21:59:24.603Z,61.62
2022-07-29T22:01:51.151Z,61.38
2022-07-29T22:04:17.642Z,61.64
2022-07-29T22:06:44.410Z,61.80
2022-07-29T22:09:10.788Z,61.54
2022-07-29T22:11:37.332Z,61.74
2022-07-29T22:14:04.369Z,61.47
2022-07-29T22:16:30.940Z,61.66
2022-07-29T22:18:57.396Z,61.93
2022-07-29T22:21:23.808Z,61.74
2022-07-29T22:23:50.225Z,61.50
2022-07-29T22:26:16.635Z,61.48
2022-07-29T22:28:43.014Z,61.87
2022-07-29T22:31:09.455Z,61.79
2022-07-29T22:33:35.907Z,61.84
2022-07-29T22:36:02.445Z,61.84
2022-07-29T22:38:28.843Z,61.49
2022-07-29T22:41:00.609Z,61.86
2022-07-29T22:43:28.094Z,61.67
2022-07-29T22:45:54.555Z,61.96
2022-07-29T22:48:21.083Z,61.93
2022-07-29T22:50:47.494Z,61.73
2022-07-29T22:53:13.954Z,61.85
2022-07-29T22:55:40.362Z,61.66
2022-07-29T22:58:06.756Z,62.07
2022-07-29T23:00:33.189Z,61.97
2022-07-29T23:02:59.625Z,61.97
2022-07-29T23:05:26.225Z,61.70
2022-07-29T23:07:52.627Z,61.74
2022-07-29T23:10:19.105Z,62.07
2022-07-29T23:12:45.475Z,61.96
2022-07-29T23:15:12.013Z,61.63
2022-07-29T23:17:38.368Z,62.06
2022-07-29T23:20:06.611Z,61.68
2022-07-29T23:22:33.203Z,62.18
2022-07-29T23:24:59.613Z,62.06
2022-07-29T23:27:26.047Z,62.01
2022-07-29T23:29:52.443Z,62.16
2022-07-29T23:32:18.828Z,61.77
2022-07-29T23:34:45.210Z,62.01
2022-07-29T23:37:11.693Z,62.07
2022-07-29T23:39:38.076Z,62.15
2022-07-29T23:42:04.904Z,61.84
2022-07-29T23:44:31.435Z,62.08
2022-07-29T23:46:58.197Z,62.11
2022-07-29T23:49:24.868Z,62.05
2022-07-29T23:51:51.316Z,62.05
2022-07-29T23:54:17.833Z,62.10
2022-07-29T23:56:44.214Z,61.96
2022-07-29T23:59:12.876Z,61.78
